Impacts TAF Board
For situational awareness. Not to be used for flight planning purposes.
IDs:

KISP - Islip/Macarthur Arpt, NY, US

Issued at 1438 UTC 26 Sep 2021
Updated at 1634 UTC 26 Sep 2021
Potential Impact None Slight Moderate High
Time1556Z 26/17Z 26/18Z 26/19Z 26/20Z 26/21Z 26/22Z 26/23Z 27/00Z 27/01Z 27/02Z 27/03Z 27/04Z 27/05Z>>
Type OBS PRVL PRVL PRVL PRVL PRVL PRVL PRVL PRVL PRVL PRVL PRVL PRVL PRVL
VIS 10 >6 >6 >6 >6 >6 >6 >6 >6 >6 >6 >6 >6 >6
CIG -- -- -- -- -- -- -- -- -- -- -- -- -- --
Cover SCT FEW FEW FEW FEW FEW FEW FEW FEW FEW FEW FEW FEW FEW
FltCat VFR VFR VFR VFR VFR VFR VFR VFR VFR VFR VFR VFR VFR VFR
WX -- -- -- -- -- -- -- -- -- -- -- -- -- --
WDir 290 320 320 320 320 320 320 320 290 290 290 290 260 260
WSpd 12 16 16 16 16 16 16 16 8 8 8 8 4 4
WGst -- 26 26 26 26 26 26 26 -- -- -- -- -- --
Raw TAF
KISP 261438Z 2615/2712 32015G22KT P6SM FEW070 FEW250
  FM261700 32016G26KT P6SM FEW060 FEW250
  FM270000 29008KT P6SM FEW100
  FM270400 26004KT P6SM FEW100


Raw METAR
KISP 261556Z 29012KT 10SM SCT030 SCT075 22/12 A2988 RMK AO2 SLP117 T02170122
KISP 261456Z 30011KT 10SM SCT075 21/12 A2988 RMK AO2 SLP118 T02060122 51008
KISP 261356Z 33013KT 10SM SCT085 20/13 A2988 RMK AO2 SLP117 T02000128

METAR Board
Radar Display
Forecast Discussion
For situational awareness. Not to be used for flight planning purposes.